• Join FlightAware (Why Join?)
  • Login
  • US Flag 
03:08PM EDT


 

Airport Tracker/Info


-or-


 

Live Flight TrackerFlight Track Log ✈ UAL481 ✈ 06-Aug-2013 ✈ KALB - KORD

Flight Track Log - Related Links

Times and Time Zones

All times are in EDT time to prevent confusion due to time zone crossing. See the UAL481 flight status page for this flight to view local times or setup timezone preferences in your user account.

Time Position Orientation Groundspeed Altitude Reporting Facility
EDT Latitude Longitude Course Direction KTS MPH feet Rate Location/Type
05:59PM 42.7297 -73.8081 282° West 131 151 1,200  Level Boston Center
06:00PM 42.6981 -73.8414 218° Southwest 197 227 2,900 2,100 Climbing Boston Center
06:02PM 42.7742 -73.9167 324° Northwest 286 329 6,400 2,880 Climbing Boston Center
06:03PM 42.8287 -74.3078 284° West  Level FlightAware Approximate
06:03PM 42.8403 -73.9692 330° Northwest 286 329 10,200  Level Boston Center
06:04PM 42.8506 -74.4366 283° West  Level FlightAware Approximate
06:04PM 42.9228 -74.0392 328° Northwest 303 349 12,400  Level Boston Center
06:05PM 42.8841 -74.5549 282° West  Level FlightAware Approximate
06:05PM 42.9886 -74.0950 328° Northwest 331 381 14,600  Level Boston Center
06:06PM 43.0533 -74.2303 303° West 353 406 17,700 2,340 Climbing Boston Center
06:07PM 43.0953 -74.3450 297° West 359 413 19,500 1,920 Climbing Boston Center
06:08PM 43.1431 -74.4747 297° West 372 428 21,600 1,980 Climbing Boston Center
06:09PM 43.2003 -74.6361 296° West 388 447 23,900 1,620 Climbing Boston Center
06:10PM 43.2497 -74.7719 297° West 393 452 25,300 1,260 Climbing Boston Center
06:11PM 43.2925 -74.9247 291° West 408 470 26,500 1,500 Climbing Boston Center
06:12PM 43.2761 -75.0894 262° West 414 476 28,400 1,620 Climbing Boston Center
06:13PM 43.2597 -75.2542 262° West 427 491 29,800 720 Climbing Boston Center
06:14PM 43.2411 -75.4186 261° West 441 507 29,900  Climbing Boston Center
06:15PM 43.2264 -75.5775 263° West 441 507 29,900  Level Boston Center
06:16PM 43.2092 -75.7392 262° West 441 507 30,000  Climbing Boston Center
06:17PM 43.1961 -75.9008 264° West 441 507 29,900  Descending Boston Center
06:18PM 43.1817 -76.0311 261° West 441 507 30,000  Climbing Boston Center
06:20PM 43.1586 -76.3650 265° West 419 482 30,000 -60 Level Cleveland Center
06:21PM 43.1603 -76.5242 271° West 426 490 29,900 -60 Descending Cleveland Center
06:22PM 43.1617 -76.6864 271° West 426 490 29,900  Level Cleveland Center
06:23PM 43.1586 -76.8489 269° West 426 490 30,000 600 Climbing Cleveland Center
06:24PM 43.1575 -77.0083 270° West 421 484 31,100 960 Climbing Cleveland Center
06:25PM 43.1581 -77.1650 270° West 421 484 32,000 420 Climbing Cleveland Center
06:26PM 43.1561 -77.3217 269° West 421 484 32,000  Level Cleveland Center
06:27PM 43.1542 -77.4725 269° West 416 479 32,000  Level Cleveland Center
06:28PM 43.1522 -77.6433 269° West 410 472 32,000  Level Cleveland Center
06:29PM 43.1519 -77.7944 270° West 404 465 32,000  Level Cleveland Center
06:30PM 43.1492 -77.9453 269° West 404 465 32,000  Level Cleveland Center
06:31PM 43.1483 -78.0961 270° West 404 465 32,000  Level Cleveland Center
06:32PM 43.1433 -78.2500 268° West 404 465 32,000  Level Cleveland Center
06:33PM 43.1400 -78.4008 268° West 404 465 32,000  Level Cleveland Center
06:34PM 43.1386 -78.5519 269° West 404 465 32,000  Level Cleveland Center
06:35PM 43.1328 -78.7056 267° West 404 465 32,000  Level Cleveland Center
06:36PM 43.1289 -78.8536 268° West 404 465 32,000  Level Cleveland Center
06:37PM 43.1247 -79.0044 268° West 404 465 32,000 420 Level Cleveland Center
06:38PM 43.1225 -79.1525 269° West 404 465 32,900 960 Climbing Cleveland Center
06:39PM 43.1139 -79.3006 265° West 404 465 34,000 540 Climbing Cleveland Center
06:40PM 43.1111 -79.4486 269° West 404 465 34,000  Level Cleveland Center
06:41PM 43.1000 -79.6333 265° West 390 449 34,000  Level Toronto Center
06:42PM 43.0833 -79.7667 260° West 390 449 34,000  Level Toronto Center
06:43PM 43.0833 -79.9333 270° West 390 449 34,000  Level Toronto Center
06:44PM 43.0833 -80.0667 270° West 390 449 34,000  Level Toronto Center
06:45PM 43.0667 -80.2000 260° West 390 449 34,000  Level Toronto Center
06:46PM 43.0667 -80.3667 270° West 390 449 34,000  Level Toronto Center
06:47PM 43.0667 -80.5000 270° West 390 449 34,000  Level Toronto Center
06:48PM 43.0500 -80.6667 262° West 390 449 34,000 720 Level Toronto Center
06:49PM 43.0500 -80.8000 270° West 390 449 35,500 960 Climbing Toronto Center
06:50PM 43.0333 -80.9333 260° West 380 437 36,000 240 Climbing Toronto Center
06:51PM 43.0167 -81.1000 262° West 370 426 36,000  Level Toronto Center
06:52PM 43.0167 -81.2333 270° West 370 426 36,000  Level Toronto Center
06:53PM 43.0167 -81.3667 270° West 360 414 36,000  Level Toronto Center
06:54PM 43.0167 -81.5000 270° West 360 414 36,000  Level Toronto Center
06:55PM 43.0167 -81.6333 270° West 360 414 36,000  Level Toronto Center
06:56PM 43.0167 -81.7833 270° West 360 414 36,000  Level Toronto Center
06:57PM 43.0000 -81.9167 260° West 360 414 36,000  Level Toronto Center
06:58PM 43.0000 -82.0500 270° West 360 414 36,000  Level Toronto Center
06:59PM 43.0000 -82.1833 270° West 360 414 36,000  Level Toronto Center
07:00PM 43.0000 -82.3167 270° West 370 426 36,000  Level Toronto Center
07:01PM 43.0000 -82.4667 270° West 370 426 36,000  Level Toronto Center
07:02PM 43.0000 -82.6000 270° West 360 414 36,000  Level Toronto Center
07:03PM 43.0014 -82.6953 271° West 367 422 36,000  Level Cleveland Center
07:04PM 42.9967 -82.8342 267° West 367 422 36,000  Level Cleveland Center
07:05PM 42.9939 -82.9761 269° West 367 422 36,000  Level Cleveland Center
07:06PM 42.9869 -83.1092 266° West 367 422 36,000  Level Cleveland Center
07:07PM 42.9775 -83.2508 265° West 367 422 36,000  Level Cleveland Center
07:08PM 42.9656 -83.4033 264° West 367 422 36,000  Level Cleveland Center
07:09PM 42.9536 -83.5419 263° West 367 422 36,000  Level Cleveland Center
07:10PM 42.9439 -83.6806 265° West 367 422 36,000  Level Cleveland Center
07:11PM 42.9317 -83.8217 263° West 367 422 36,000  Level Cleveland Center
07:12PM 42.9192 -83.9600 263° West 367 422 36,000  Level Cleveland Center
07:13PM 42.9089 -84.0983 264° West 367 422 36,000 -60 Level Cleveland Center
07:14PM 42.8983 -84.2339 264° West 367 422 35,900 -540 Descending Cleveland Center
07:15PM 42.8883 -84.3547 264° West 371 427 35,000 -960 Descending Chicago Center
07:16PM 42.8775 -84.4958 264° West 373 429 34,000 -1,020 Descending Chicago Center
07:17PM 42.8644 -84.6403 263° West 383 441 33,000 -960 Descending Chicago Center
07:18PM 42.8517 -84.7861 263° West 387 445 32,100 -540 Descending Chicago Center
07:19PM 42.8358 -84.9597 263° West 387 445 32,000 -60 Descending Chicago Center
07:20PM 42.8225 -85.1056 263° West 388 447 32,000  Level Chicago Center
07:21PM 42.8097 -85.2503 263° West 386 444 32,000 -660 Level Chicago Center
07:22PM 42.7961 -85.3942 263° West 384 442 30,700 -1,560 Descending Chicago Center
07:23PM 42.7800 -85.5347 261° West 377 434 28,800 -1,860 Descending Chicago Center
07:24PM 42.7539 -85.6747 256° West 380 437 26,900 -1,860 Descending Chicago Center
07:25PM 42.7289 -85.8125 256° West 374 430 25,000 -1,980 Descending Chicago Center
07:26PM 42.7000 -85.9739 256° West 365 420 22,900 -1,860 Descending Chicago Center
07:27PM 42.6764 -86.1056 256° West 360 414 21,200 -1,440 Descending Chicago Center
07:28PM 42.6519 -86.2367 256° West 357 411 20,000 -600 Descending Chicago Center
07:29PM 42.6272 -86.3653 255° West 353 406 20,000 -120 Level Chicago Center
07:30PM 42.6036 -86.4944 256° West 352 405 19,800 -1,020 Descending Chicago Center
07:31PM 42.5794 -86.6203 255° West 347 399 18,000 -1,680 Descending Chicago Center
07:32PM 42.5564 -86.7450 256° West 343 395 16,400 -2,040 Descending Chicago Center
07:34PM 42.5186 -86.8808 249° West 325 374 13,800 -2,220 Descending Chicago Center
07:35PM 42.4881 -86.9950 250° West 317 365 11,900 -1,800 Descending Chicago Center
07:36PM 42.4567 -87.1011 248° West 313 360 10,100 -960 Descending Chicago Center
07:37PM 42.4272 -87.2094 250° West 310 357 9,900 -540 Descending Chicago Center
07:38PM 42.4011 -87.3033 249° West 278 320 9,000 -1,020 Descending Chicago Center
07:39PM 42.3708 -87.4175 250° West 271 312 7,800 -960 Descending Chicago Center
07:40PM 42.3467 -87.5028 249° West 257 296 7,100 -1,020 Descending Chicago Center
07:41PM 42.2903 -87.5008 179° South 224 258 5,700 -1,020 Descending Chicago Center
07:42PM 42.2311 -87.4589 152° Southeast 237 273 5,000 -540 Descending Chicago Center
07:43PM 42.1714 -87.4297 160° South 233 268 4,700 -540 Descending Chicago Center
07:44PM 42.1003 -87.4242 177° South 219 252 4,000 -360 Descending Chicago Center
07:45PM 42.0392 -87.4133 172° South 219 252 4,000  Level Chicago Center
07:46PM 42.0056 -87.4503 219° Southwest 199 229 4,000  Level Chicago Center
07:47PM 42.0011 -87.5178 265° West 188 216 4,000  Level Chicago Center
07:48PM 42.0028 -87.5861 272° West 185 213 4,000 -60 Level Chicago Center
07:49PM 42.0028 -87.6675 270° West 184 212 3,900 -540 Descending Chicago Center
07:50PM 42.0022 -87.7344 269° West 182 209 3,000 -960 Descending Chicago Center
07:51PM 42.0028 -87.8028 271° West 183 211 2,000 -780 Descending Chicago Center
07:52PM 42.0022 -87.8681 269° West 179 206 1,400 -480 Descending Chicago Center
07:53PM 42.0042 -87.9172 273° West 174 200 1,100 -300 Descending Chicago Center